createdAt,value
2022-10-19T00:01:47.681Z,14.99
2022-10-19T00:05:49.018Z,14.99
2022-10-19T00:09:50.308Z,14.98
2022-10-19T00:13:54.388Z,15.00
2022-10-19T00:17:55.901Z,14.99
2022-10-19T00:21:57.446Z,14.99
2022-10-19T00:25:59.328Z,14.99
2022-10-19T00:30:01.507Z,15.01
2022-10-19T00:34:02.949Z,15.01
2022-10-19T00:38:04.633Z,15.01
2022-10-19T00:42:05.879Z,15.01
2022-10-19T00:46:13.035Z,14.99
2022-10-19T00:50:14.821Z,14.98
2022-10-19T00:54:16.586Z,14.97
2022-10-19T00:58:17.868Z,14.95
2022-10-19T01:02:19.744Z,14.89
2022-10-19T01:06:21.133Z,14.85
2022-10-19T01:10:25.844Z,14.76
2022-10-19T01:14:45.943Z,14.66
2022-10-19T01:19:17.987Z,14.60
2022-10-19T01:23:38.279Z,14.57
2022-10-19T01:27:39.564Z,14.50
2022-10-19T01:31:43.584Z,14.46
2022-10-19T01:35:48.061Z,14.41
2022-10-19T01:39:59.576Z,14.38
2022-10-19T01:44:06.946Z,14.31
2022-10-19T01:48:14.420Z,14.21
2022-10-19T01:52:18.107Z,14.10
2022-10-19T01:56:21.660Z,13.94
2022-10-19T02:00:23.940Z,13.84
2022-10-19T02:04:25.682Z,13.80
2022-10-19T02:08:30.552Z,13.71
2022-10-19T02:12:32.564Z,13.58
2022-10-19T02:16:40.652Z,13.47
2022-10-19T02:20:41.966Z,13.38
2022-10-19T02:24:43.280Z,13.23
2022-10-19T02:28:44.529Z,13.18
2022-10-19T02:32:47.065Z,13.17
2022-10-19T02:36:48.651Z,13.17
2022-10-19T02:41:05.657Z,13.20
2022-10-19T02:45:13.680Z,13.24
2022-10-19T02:49:15.626Z,13.33
2022-10-19T02:53:16.856Z,13.40
2022-10-19T02:57:19.786Z,13.46
2022-10-19T03:01:21.332Z,13.46
2022-10-19T03:05:22.616Z,13.46
2022-10-19T03:09:23.871Z,13.35
2022-10-19T03:13:25.550Z,13.28
2022-10-19T03:17:26.925Z,13.30
2022-10-19T03:21:28.232Z,13.34
2022-10-19T03:25:29.473Z,13.36
2022-10-19T03:29:30.740Z,13.41
2022-10-19T03:33:32.074Z,13.46
2022-10-19T03:37:33.686Z,13.51
2022-10-19T03:41:36.144Z,13.55
2022-10-19T03:45:37.465Z,13.60
2022-10-19T03:49:40.276Z,13.65
2022-10-19T03:53:42.183Z,13.69
2022-10-19T03:57:43.463Z,13.73
2022-10-19T04:01:45.688Z,13.75
2022-10-19T04:05:46.928Z,13.79
2022-10-19T04:09:48.245Z,13.81
2022-10-19T04:13:50.479Z,13.80
2022-10-19T04:17:52.085Z,13.82
2022-10-19T04:21:53.320Z,13.83
2022-10-19T04:26:01.756Z,13.86
2022-10-19T04:30:03.279Z,13.89
2022-10-19T04:34:04.749Z,13.91
2022-10-19T04:38:06.028Z,13.94
2022-10-19T04:42:07.717Z,13.97
2022-10-19T04:46:14.144Z,13.98
2022-10-19T04:50:15.477Z,14.01
2022-10-19T04:54:16.782Z,14.05
2022-10-19T04:58:18.088Z,14.06
2022-10-19T05:02:19.315Z,14.06
2022-10-19T05:06:21.180Z,14.08
2022-10-19T05:10:22.491Z,14.07
2022-10-19T05:14:23.929Z,14.07
2022-10-19T05:18:25.316Z,14.12
2022-10-19T05:22:27.092Z,14.12
2022-10-19T05:26:29.042Z,14.14
2022-10-19T05:30:30.636Z,14.16
2022-10-19T05:34:31.906Z,14.18
2022-10-19T05:38:33.233Z,14.18
2022-10-19T05:42:34.845Z,14.18
2022-10-19T05:46:36.944Z,14.18
2022-10-19T05:50:38.192Z,14.17
2022-10-19T05:54:39.697Z,14.17
2022-10-19T05:58:43.942Z,14.16
2022-10-19T06:02:45.304Z,14.16
2022-10-19T06:06:46.678Z,14.17
2022-10-19T06:10:48.633Z,14.16
2022-10-19T06:14:52.914Z,14.14
2022-10-19T06:18:55.473Z,14.13
2022-10-19T06:22:56.703Z,14.12
2022-10-19T06:26:57.998Z,14.12
2022-10-19T06:30:59.398Z,14.13
2022-10-19T06:35:00.737Z,14.13
2022-10-19T06:39:02.360Z,14.15
2022-10-19T06:43:03.674Z,14.16
2022-10-19T06:47:04.997Z,14.20
2022-10-19T06:51:09.608Z,14.24
2022-10-19T06:55:10.910Z,14.31
2022-10-19T06:59:14.723Z,14.37
2022-10-19T07:03:16.243Z,14.42
2022-10-19T07:07:17.637Z,14.48
2022-10-19T07:11:19.966Z,14.55
2022-10-19T07:15:21.313Z,14.62
2022-10-19T07:19:25.600Z,14.72
2022-10-19T07:23:28.431Z,14.89
2022-10-19T07:27:31.865Z,15.17
2022-10-19T07:31:36.680Z,15.42
2022-10-19T07:35:37.965Z,15.49
2022-10-19T07:39:39.677Z,15.56
2022-10-19T07:43:43.841Z,15.61
2022-10-19T07:47:47.967Z,15.64
2022-10-19T07:51:55.416Z,15.69
2022-10-19T07:56:02.463Z,15.75
2022-10-19T08:00:04.022Z,15.79
2022-10-19T08:08:27.133Z,15.80
2022-10-19T08:12:28.461Z,15.80
2022-10-19T08:16:33.909Z,15.81
2022-10-19T08:20:35.351Z,15.83
2022-10-19T08:24:36.697Z,15.88
2022-10-19T08:28:38.081Z,15.95
2022-10-19T08:32:39.688Z,16.00
2022-10-19T08:40:44.868Z,16.07
2022-10-19T08:45:08.080Z,16.06
2022-10-19T08:49:19.212Z,16.02
2022-10-19T08:53:37.361Z,15.99
2022-10-19T08:57:54.224Z,15.99
2022-10-19T09:01:58.135Z,15.98
2022-10-19T09:06:14.700Z,15.97
2022-10-19T09:10:16.765Z,15.94
2022-10-19T09:14:25.573Z,15.94
2022-10-19T09:18:28.608Z,15.94
2022-10-19T09:22:33.188Z,15.93
2022-10-19T09:26:46.010Z,15.92
2022-10-19T09:30:51.313Z,15.89
2022-10-19T09:35:02.470Z,15.96
2022-10-19T09:39:04.245Z,15.97
2022-10-19T09:43:19.412Z,16.00
2022-10-19T09:47:33.278Z,16.05
2022-10-19T09:51:44.957Z,16.11
2022-10-19T09:55:53.134Z,16.27
2022-10-19T09:59:54.864Z,16.35
2022-10-19T10:04:05.210Z,16.41
2022-10-19T10:08:14.767Z,16.47
2022-10-19T10:12:16.189Z,16.54
2022-10-19T10:16:18.732Z,16.69
2022-10-19T10:20:27.628Z,16.77
2022-10-19T10:24:30.340Z,16.89
2022-10-19T10:28:32.238Z,16.97
2022-10-19T10:32:37.127Z,17.01
2022-10-19T10:36:38.544Z,17.08
2022-10-19T10:40:40.599Z,17.11
2022-10-19T10:44:46.589Z,17.16
2022-10-19T10:49:02.892Z,17.32
2022-10-19T10:53:05.675Z,17.46
2022-10-19T10:57:15.631Z,17.69
2022-10-19T11:01:21.876Z,17.88
2022-10-19T11:05:23.427Z,18.04
2022-10-19T11:09:36.429Z,18.32
2022-10-19T11:13:43.448Z,18.51
2022-10-19T11:17:57.145Z,18.67
2022-10-19T11:22:04.514Z,18.83
2022-10-19T11:26:24.719Z,18.99
2022-10-19T11:30:26.485Z,18.95
2022-10-19T11:34:27.753Z,18.94
2022-10-19T11:38:36.440Z,18.92
2022-10-19T11:42:40.753Z,18.88
2022-10-19T11:46:51.064Z,18.80
2022-10-19T11:51:21.086Z,18.72
2022-10-19T11:55:27.151Z,18.73
2022-10-19T11:59:46.472Z,18.89
2022-10-19T12:04:00.144Z,19.07
2022-10-19T12:08:13.756Z,19.14
2022-10-19T12:12:15.113Z,19.13
2022-10-19T12:16:17.216Z,19.12
2022-10-19T12:20:26.785Z,19.19
2022-10-19T12:24:29.767Z,19.22
2022-10-19T12:28:32.491Z,19.30
2022-10-19T12:32:39.249Z,19.34
2022-10-19T12:36:50.360Z,19.37
2022-10-19T12:40:51.620Z,19.41
2022-10-19T12:45:02.205Z,19.43
2022-10-19T12:49:29.832Z,19.46
2022-10-19T12:53:36.330Z,19.46
2022-10-19T12:57:39.403Z,19.52
2022-10-19T13:01:44.584Z,19.59
2022-10-19T13:05:55.573Z,19.64
2022-10-19T13:10:01.764Z,19.70
2022-10-19T13:14:25.820Z,19.72
2022-10-19T13:18:45.972Z,19.71
2022-10-19T13:22:48.062Z,19.62
2022-10-19T13:27:09.905Z,19.53
2022-10-19T13:31:30.835Z,19.48
2022-10-19T13:35:32.190Z,19.44
2022-10-19T13:39:38.656Z,19.47
2022-10-19T13:43:58.881Z,19.48
2022-10-19T13:48:11.386Z,19.47
2022-10-19T13:52:51.302Z,19.46
2022-10-19T13:57:06.330Z,19.43
2022-10-19T14:01:10.804Z,19.39
2022-10-19T14:05:34.601Z,19.43
2022-10-19T14:09:54.789Z,19.49
2022-10-19T14:14:11.346Z,19.54
2022-10-19T14:18:23.736Z,19.51
2022-10-19T14:22:34.639Z,19.46
2022-10-19T14:26:36.257Z,19.41
2022-10-19T14:30:37.760Z,19.35
2022-10-19T14:34:40.517Z,19.19
2022-10-19T14:38:45.748Z,19.05
2022-10-19T14:42:47.522Z,18.95
2022-10-19T14:46:48.772Z,18.94
2022-10-19T14:50:53.179Z,18.90
2022-10-19T14:54:56.231Z,18.79
2022-10-19T14:59:02.269Z,18.67
2022-10-19T15:03:06.523Z,18.54
2022-10-19T15:07:37.429Z,18.37
2022-10-19T15:11:40.332Z,18.26
2022-10-19T15:15:41.849Z,18.21
2022-10-19T15:19:43.140Z,18.11
2022-10-19T15:23:45.528Z,18.04
2022-10-19T15:27:49.905Z,17.95
2022-10-19T15:31:56.327Z,17.87
2022-10-19T15:36:05.563Z,17.76
2022-10-19T15:40:13.371Z,17.62
2022-10-19T15:44:39.914Z,17.48
2022-10-19T15:48:51.143Z,17.35
2022-10-19T15:52:55.022Z,17.24
2022-10-19T15:56:57.622Z,17.15
2022-10-19T16:00:58.916Z,17.05
2022-10-19T16:05:00.308Z,16.94
2022-10-19T16:09:02.032Z,16.85
2022-10-19T16:13:03.677Z,16.79
2022-10-19T16:17:04.992Z,16.72
2022-10-19T16:21:06.508Z,16.65
2022-10-19T16:25:07.820Z,16.53
2022-10-19T16:29:09.194Z,16.46
2022-10-19T16:33:10.603Z,16.38
2022-10-19T16:37:11.938Z,16.28
2022-10-19T16:41:13.370Z,16.21
2022-10-19T16:45:15.017Z,16.10
2022-10-19T16:49:16.445Z,16.04
2022-10-19T16:53:17.767Z,15.97
2022-10-19T16:57:19.080Z,15.91
2022-10-19T17:01:20.980Z,15.83
2022-10-19T17:05:22.328Z,15.79
2022-10-19T17:13:47.831Z,15.60
2022-10-19T17:17:49.272Z,15.53
2022-10-19T17:21:50.584Z,15.45
2022-10-19T17:25:52.401Z,15.40
2022-10-19T17:29:53.668Z,15.35
2022-10-19T17:33:55.077Z,15.27
2022-10-19T17:37:56.385Z,15.23
2022-10-19T17:42:01.324Z,15.18
2022-10-19T17:46:05.339Z,15.05
2022-10-19T17:50:07.080Z,15.01
2022-10-19T17:54:09.565Z,14.96
2022-10-19T17:58:10.837Z,14.93
2022-10-19T18:02:12.252Z,14.91
2022-10-19T18:06:15.750Z,14.88
2022-10-19T18:10:17.128Z,14.85
2022-10-19T18:14:18.806Z,14.85
2022-10-19T18:18:20.128Z,14.83
2022-10-19T18:22:21.898Z,14.82
2022-10-19T18:26:24.433Z,14.77
2022-10-19T18:30:26.096Z,14.74
2022-10-19T18:34:27.800Z,14.74
2022-10-19T18:38:29.202Z,14.71
2022-10-19T18:42:30.506Z,14.71
2022-10-19T18:46:33.349Z,14.66
2022-10-19T18:50:34.618Z,14.61
2022-10-19T18:54:37.447Z,14.59
2022-10-19T18:58:39.092Z,14.58
2022-10-19T19:02:46.742Z,14.52
2022-10-19T19:06:48.650Z,14.52
2022-10-19T19:10:49.976Z,14.47
2022-10-19T19:14:51.269Z,14.48
2022-10-19T19:18:53.736Z,14.46
2022-10-19T19:22:55.025Z,14.45
2022-10-19T19:26:57.933Z,14.40
2022-10-19T19:30:59.540Z,14.36
2022-10-19T19:35:00.872Z,14.36
2022-10-19T19:39:02.297Z,14.33
2022-10-19T19:43:03.653Z,14.32
2022-10-19T19:47:05.734Z,14.30
2022-10-19T19:51:11.288Z,14.27
2022-10-19T19:55:12.640Z,14.24
2022-10-19T19:59:14.335Z,14.21
2022-10-19T20:03:16.330Z,14.19
2022-10-19T20:07:17.753Z,14.17
2022-10-19T20:11:19.242Z,14.17
2022-10-19T20:15:20.569Z,14.13
2022-10-19T20:19:22.189Z,14.11
2022-10-19T20:23:23.630Z,14.07
2022-10-19T20:27:25.828Z,14.03
2022-10-19T20:35:29.722Z,13.96
2022-10-19T20:39:31.064Z,13.94
2022-10-19T20:43:32.713Z,13.90
2022-10-19T20:47:34.081Z,13.86
2022-10-19T20:51:38.925Z,13.83
2022-10-19T20:55:40.388Z,13.81
2022-10-19T20:59:43.979Z,13.80
2022-10-19T21:03:47.184Z,13.76
2022-10-19T21:07:48.545Z,13.71
2022-10-19T21:11:50.942Z,13.66
2022-10-19T21:15:52.277Z,13.63
2022-10-19T21:19:57.232Z,13.60
2022-10-19T21:24:04.518Z,13.57
2022-10-19T21:28:05.814Z,13.55
2022-10-19T21:32:07.220Z,13.52
2022-10-19T21:36:08.853Z,13.49
2022-10-19T21:40:10.367Z,13.48
2022-10-19T21:44:11.852Z,13.47
2022-10-19T21:48:13.162Z,13.46
2022-10-19T21:52:16.207Z,13.45
2022-10-19T21:56:17.676Z,13.43
2022-10-19T22:00:19.013Z,13.41
2022-10-19T22:04:20.780Z,13.41
2022-10-19T22:08:23.665Z,13.36
2022-10-19T22:12:25.041Z,13.34
2022-10-19T22:16:27.252Z,13.34
2022-10-19T22:20:28.846Z,13.33
2022-10-19T22:24:30.285Z,13.32
2022-10-19T22:28:31.545Z,13.29
2022-10-19T22:32:33.132Z,13.24
2022-10-19T22:36:35.292Z,13.20
2022-10-19T22:40:37.202Z,13.19
2022-10-19T22:44:38.484Z,13.18
2022-10-19T22:48:39.825Z,13.14
2022-10-19T22:52:41.146Z,13.14
2022-10-19T22:56:42.757Z,13.14
2022-10-19T23:00:44.080Z,13.12
2022-10-19T23:04:45.413Z,13.08
2022-10-19T23:08:47.187Z,13.06
2022-10-19T23:12:50.261Z,13.02
2022-10-19T23:16:51.553Z,13.01
2022-10-19T23:20:56.812Z,12.98
2022-10-19T23:24:58.133Z,12.96
2022-10-19T23:28:59.500Z,12.94
2022-10-19T23:37:07.038Z,12.90
2022-10-19T23:41:08.267Z,12.89
2022-10-19T23:45:10.136Z,12.90
2022-10-19T23:49:11.408Z,12.89
2022-10-19T23:53:12.823Z,12.88
2022-10-19T23:57:14.053Z,12.86
